Time;durP1;ratioP1;P1;durP2;ratioP2;P2;SDS_P1;SDS_P2;PMS_P1;PMS_P2;Temp;Humidity;BMP_temperature;BMP_pressure;BME280_temperature;BME280_humidity;BME280_pressure;Samples;Min_cycle;Max_cycle;Signal;HPM_P1;HPM_P2
2022/09/17 00:00:22;;;;;;;18.08;3.17;;;;;;;;;;5083579;27;95618;-68
2022/09/17 00:02:54;;;;;;;11.75;2.75;;;;;;;;;;5101362;27;92965;-68
2022/09/17 00:05:22;;;;;;;13.80;3.50;;;;;;;;;;5101576;27;93271;-68
2022/09/17 00:07:49;;;;;;;19.83;3.10;;;;;;;;;;5080413;27;93810;-68
2022/09/17 00:10:15;;;;;;;13.27;2.70;;;;;;;;;;5077279;27;92421;-68
2022/09/17 00:12:42;;;;;;;17.52;2.80;;;;;;;;;;5080639;27;93909;-68
2022/09/17 00:15:08;;;;;;;11.20;2.42;;;;;;;;;;5089795;27;92454;-68
2022/09/17 00:17:34;;;;;;;18.00;3.40;;;;;;;;;;5086837;27;92901;-68
2022/09/17 00:20:01;;;;;;;17.30;2.65;;;;;;;;;;5077488;27;94409;-68
2022/09/17 00:22:27;;;;;;;14.90;2.75;;;;;;;;;;5080195;27;92511;-68
2022/09/17 00:24:54;;;;;;;13.75;2.55;;;;;;;;;;5096100;27;95223;-68
2022/09/17 00:27:20;;;;;;;11.52;4.13;;;;;;;;;;5098247;27;94087;-68
2022/09/17 00:29:47;;;;;;;22.50;3.45;;;;;;;;;;5097956;27;92497;-68
2022/09/17 00:32:13;;;;;;;20.95;3.97;;;;;;;;;;5095974;27;92912;-68
2022/09/17 00:34:41;;;;;;;13.45;2.58;;;;;;;;;;5100586;27;93375;-68
2022/09/17 00:37:07;;;;;;;13.27;3.28;;;;;;;;;;5096737;27;92956;-68
2022/09/17 00:39:33;;;;;;;8.27;2.05;;;;;;;;;;5095088;27;93953;-68
2022/09/17 00:41:59;;;;;;;18.38;2.53;;;;;;;;;;5077596;27;91789;-68
2022/09/17 00:44:45;;;;;;;14.88;2.85;;;;;;;;;;5077299;27;93334;-68
2022/09/17 00:47:15;;;;;;;10.68;2.55;;;;;;;;;;5080941;27;94156;-68
2022/09/17 00:49:41;;;;;;;14.05;2.75;;;;;;;;;;5095854;27;94821;-69
2022/09/17 00:52:10;;;;;;;14.90;2.78;;;;;;;;;;5078817;27;96464;-68
2022/09/17 00:54:37;;;;;;;17.25;2.83;;;;;;;;;;5096885;27;92438;-68
2022/09/17 00:57:04;;;;;;;11.98;3.17;;;;;;;;;;5098116;27;93025;-68
2022/09/17 00:59:30;;;;;;;12.38;2.70;;;;;;;;;;5080307;27;93827;-68
2022/09/17 01:01:56;;;;;;;12.45;2.92;;;;;;;;;;5094455;27;92426;-68
2022/09/17 01:04:24;;;;;;;22.73;2.47;;;;;;;;;;5097506;27;94314;-69
2022/09/17 01:06:56;;;;;;;15.32;2.17;;;;;;;;;;5097047;27;92559;-68
2022/09/17 01:09:30;;;;;;;18.65;2.30;;;;;;;;;;5097947;27;92471;-68
2022/09/17 01:12:06;;;;;;;14.65;3.33;;;;;;;;;;5095760;27;93134;-68
2022/09/17 01:14:45;;;;;;;13.68;2.40;;;;;;;;;;5093810;27;95772;-68
2022/09/17 01:17:34;;;;;;;10.13;2.10;;;;;;;;;;5091874;27;92390;-68
2022/09/17 01:20:01;;;;;;;16.80;2.40;;;;;;;;;;5075208;27;94562;-68
2022/09/17 01:22:27;;;;;;;17.38;1.95;;;;;;;;;;5075883;27;92452;-68
2022/09/17 01:25:12;;;;;;;13.15;2.45;;;;;;;;;;5076771;27;92889;-68
2022/09/17 01:27:39;;;;;;;12.32;2.10;;;;;;;;;;5075069;27;93281;-68
2022/09/17 01:30:31;;;;;;;14.63;2.40;;;;;;;;;;5076629;27;92429;-68
2022/09/17 01:33:04;;;;;;;6.97;1.90;;;;;;;;;;5075451;27;93087;-67
2022/09/17 01:35:37;;;;;;;11.45;2.80;;;;;;;;;;5075497;27;93476;-69
2022/09/17 01:38:03;;;;;;;12.18;2.08;;;;;;;;;;5076381;27;92690;-68
2022/09/17 01:40:39;;;;;;;4.43;1.65;;;;;;;;;;5077877;27;95483;-68
2022/09/17 01:43:09;;;;;;;13.18;2.28;;;;;;;;;;5075980;27;92381;-68
2022/09/17 01:45:45;;;;;;;6.88;1.60;;;;;;;;;;5076530;27;94164;-68
2022/09/17 01:48:15;;;;;;;6.03;1.48;;;;;;;;;;5076101;27;94133;-69
2022/09/17 01:50:46;;;;;;;9.88;1.52;;;;;;;;;;5075449;27;93146;-70
2022/09/17 01:53:14;;;;;;;12.35;1.52;;;;;;;;;;5076657;27;94038;-69
2022/09/17 01:55:42;;;;;;;10.25;1.60;;;;;;;;;;5074667;27;93458;-68
2022/09/17 01:58:08;;;;;;;6.93;1.90;;;;;;;;;;5076266;27;91609;-68
2022/09/17 02:00:36;;;;;;;7.70;1.30;;;;;;;;;;5082077;27;92667;-68
2022/09/17 02:03:08;;;;;;;9.35;1.65;;;;;;;;;;5099168;27;92885;-68
2022/09/17 02:05:40;;;;;;;9.07;1.65;;;;;;;;;;5083587;27;94838;-68
2022/09/17 02:08:12;;;;;;;10.10;1.75;;;;;;;;;;5074411;27;93546;-68
2022/09/17 02:10:41;;;;;;;7.40;2.10;;;;;;;;;;5076355;27;92271;-68
2022/09/17 02:13:09;;;;;;;12.70;2.03;;;;;;;;;;5087714;27;93605;-68
2022/09/17 02:15:40;;;;;;;7.03;1.20;;;;;;;;;;5095648;27;95034;-68
2022/09/17 02:18:14;;;;;;;10.50;2.13;;;;;;;;;;5095642;27;92508;-68
2022/09/17 02:20:49;;;;;;;8.05;2.60;;;;;;;;;;5096649;27;93777;-68
2022/09/17 02:23:31;;;;;;;5.20;1.27;;;;;;;;;;5078819;27;93392;-68
2022/09/17 02:26:02;;;;;;;6.25;1.60;;;;;;;;;;5078903;27;92730;-68
2022/09/17 02:28:42;;;;;;;9.60;1.40;;;;;;;;;;5088992;27;93268;-68
2022/09/17 02:31:09;;;;;;;5.57;1.20;;;;;;;;;;5093184;27;94815;-68
2022/09/17 02:33:36;;;;;;;8.80;1.65;;;;;;;;;;5094899;27;95342;-68
2022/09/17 02:36:03;;;;;;;6.68;1.52;;;;;;;;;;5096288;27;93869;-68
2022/09/17 02:38:30;;;;;;;4.80;1.50;;;;;;;;;;5093208;27;92359;-68
2022/09/17 02:41:16;;;;;;;14.00;2.03;;;;;;;;;;5075568;27;93943;-68
2022/09/17 02:44:03;;;;;;;12.65;1.73;;;;;;;;;;5063282;27;94172;-68
2022/09/17 02:46:41;;;;;;;8.25;1.90;;;;;;;;;;5075147;27;92696;-68
2022/09/17 02:49:08;;;;;;;14.65;1.88;;;;;;;;;;5077950;27;92829;-68
2022/09/17 02:51:52;;;;;;;10.07;1.52;;;;;;;;;;5090663;27;92913;-68
2022/09/17 02:54:28;;;;;;;7.55;1.65;;;;;;;;;;5096336;27;93838;-68
2022/09/17 02:57:03;;;;;;;10.57;1.90;;;;;;;;;;5078333;27;95256;-68
2022/09/17 02:59:33;;;;;;;3.00;1.63;;;;;;;;;;5074069;27;92476;-68
2022/09/17 03:02:02;;;;;;;7.93;1.63;;;;;;;;;;5093116;27;94256;-68
2022/09/17 03:04:29;;;;;;;15.32;1.95;;;;;;;;;;5095307;27;94044;-68
2022/09/17 03:06:58;;;;;;;9.70;1.60;;;;;;;;;;5095648;27;92408;-68
2022/09/17 03:09:24;;;;;;;13.15;1.90;;;;;;;;;;5097645;27;92748;-68
2022/09/17 03:11:51;;;;;;;9.27;1.85;;;;;;;;;;5094847;27;93213;-68
2022/09/17 03:14:19;;;;;;;9.65;2.00;;;;;;;;;;5081395;27;93202;-68
2022/09/17 03:16:45;;;;;;;5.50;1.75;;;;;;;;;;5075260;27;93272;-68
2022/09/17 03:19:12;;;;;;;12.98;1.85;;;;;;;;;;5073728;27;92948;-68
2022/09/17 03:21:38;;;;;;;9.40;1.90;;;;;;;;;;5073588;27;94643;-67
2022/09/17 03:24:04;;;;;;;9.80;2.10;;;;;;;;;;5074607;27;94138;-68
2022/09/17 03:26:31;;;;;;;10.00;1.90;;;;;;;;;;5074564;27;92976;-68
2022/09/17 03:28:57;;;;;;;9.30;2.10;;;;;;;;;;5073915;27;93175;-68
2022/09/17 03:31:24;;;;;;;5.60;1.92;;;;;;;;;;5095860;27;93311;-67
2022/09/17 03:33:50;;;;;;;10.32;2.00;;;;;;;;;;5093434;27;92879;-68
2022/09/17 03:36:17;;;;;;;9.88;2.05;;;;;;;;;;5094691;27;93440;-68
2022/09/17 03:38:43;;;;;;;17.15;2.63;;;;;;;;;;5095954;27;91694;-68
2022/09/17 03:41:10;;;;;;;6.32;1.95;;;;;;;;;;5093964;27;92372;-68
2022/09/17 03:43:36;;;;;;;19.40;2.42;;;;;;;;;;5095371;27;94053;-68
2022/09/17 03:46:02;;;;;;;12.65;1.98;;;;;;;;;;5097044;27;94815;-68
2022/09/17 03:48:29;;;;;;;9.70;2.42;;;;;;;;;;5097046;27;94162;-68
2022/09/17 03:50:55;;;;;;;14.80;2.75;;;;;;;;;;5097804;27;93013;-68
2022/09/17 03:53:22;;;;;;;7.63;1.90;;;;;;;;;;5101066;27;92470;-68
2022/09/17 03:55:48;;;;;;;13.68;2.67;;;;;;;;;;5095438;27;94273;-68
2022/09/17 03:58:14;;;;;;;13.15;2.20;;;;;;;;;;5098947;27;92417;-68
2022/09/17 04:00:41;;;;;;;16.05;2.92;;;;;;;;;;5090247;27;93281;-68
2022/09/17 04:03:08;;;;;;;10.93;2.78;;;;;;;;;;5086403;27;92666;-68
2022/09/17 04:05:34;;;;;;;11.48;2.30;;;;;;;;;;5080534;27;92596;-68
2022/09/17 04:08:00;;;;;;;13.13;2.55;;;;;;;;;;5076838;27;92970;-68
2022/09/17 04:10:28;;;;;;;14.40;4.55;;;;;;;;;;5085897;27;95837;-69
2022/09/17 04:12:54;;;;;;;10.70;2.45;;;;;;;;;;5098237;27;92533;-68
2022/09/17 04:15:20;;;;;;;14.13;2.47;;;;;;;;;;5100954;27;93856;-69
2022/09/17 04:17:46;;;;;;;17.00;1.88;;;;;;;;;;5093927;27;93552;-69
2022/09/17 04:20:13;;;;;;;20.00;2.75;;;;;;;;;;5098447;27;93747;-69
2022/09/17 04:22:40;;;;;;;11.60;2.08;;;;;;;;;;5076889;27;93247;-68
2022/09/17 04:25:06;;;;;;;15.10;2.95;;;;;;;;;;5076795;27;92453;-69
2022/09/17 04:27:33;;;;;;;16.08;2.80;;;;;;;;;;5077606;27;92948;-68
2022/09/17 04:30:00;;;;;;;7.38;1.80;;;;;;;;;;5075698;27;93380;-69
2022/09/17 04:32:26;;;;;;;7.32;1.80;;;;;;;;;;5077227;27;92428;-68
2022/09/17 04:34:52;;;;;;;17.67;2.25;;;;;;;;;;5075032;27;94765;-69
2022/09/17 04:37:19;;;;;;;12.20;1.77;;;;;;;;;;5078826;27;93236;-68
2022/09/17 04:39:45;;;;;;;4.88;1.42;;;;;;;;;;5077058;27;93214;-69
2022/09/17 04:42:12;;;;;;;9.93;1.98;;;;;;;;;;5077466;27;94116;-68
2022/09/17 04:44:38;;;;;;;9.38;2.10;;;;;;;;;;5076795;27;92768;-69
2022/09/17 04:47:04;;;;;;;10.05;1.95;;;;;;;;;;5076373;27;93076;-68
2022/09/17 04:49:31;;;;;;;10.68;2.33;;;;;;;;;;5077070;27;93166;-68
2022/09/17 04:51:57;;;;;;;11.07;2.10;;;;;;;;;;5076740;27;91712;-69
2022/09/17 04:54:24;;;;;;;9.63;1.58;;;;;;;;;;5076445;27;92298;-69
2022/09/17 04:56:50;;;;;;;10.93;1.85;;;;;;;;;;5075094;27;92499;-69
2022/09/17 04:59:16;;;;;;;15.63;2.67;;;;;;;;;;5078490;27;94822;-69
2022/09/17 05:01:43;;;;;;;11.98;1.92;;;;;;;;;;5076890;27;94427;-69
2022/09/17 05:04:10;;;;;;;12.43;1.50;;;;;;;;;;5076780;27;92425;-69
2022/09/17 05:06:36;;;;;;;9.50;3.58;;;;;;;;;;5076675;27;93478;-69
2022/09/17 05:09:02;;;;;;;5.53;1.60;;;;;;;;;;5080982;27;93367;-69
2022/09/17 05:11:28;;;;;;;14.05;2.85;;;;;;;;;;5096071;27;92680;-69
2022/09/17 05:13:55;;;;;;;6.57;1.75;;;;;;;;;;5096638;27;93396;-70
2022/09/17 05:16:21;;;;;;;7.65;1.60;;;;;;;;;;5095018;27;94030;-70
2022/09/17 05:18:50;;;;;;;5.68;1.50;;;;;;;;;;5078950;27;92862;-70
2022/09/17 05:21:16;;;;;;;7.00;1.50;;;;;;;;;;5077086;27;93042;-70
2022/09/17 05:23:43;;;;;;;13.85;1.50;;;;;;;;;;5074558;27;94824;-69
2022/09/17 05:26:09;;;;;;;8.10;1.75;;;;;;;;;;5075722;27;94082;-69
2022/09/17 05:28:35;;;;;;;8.75;2.20;;;;;;;;;;5079046;27;93208;-69
2022/09/17 05:31:02;;;;;;;6.57;1.40;;;;;;;;;;5096538;27;92478;-69
2022/09/17 05:33:28;;;;;;;7.05;1.40;;;;;;;;;;5095673;27;92758;-69
2022/09/17 05:35:55;;;;;;;7.05;1.70;;;;;;;;;;5096113;27;93307;-69
2022/09/17 05:38:21;;;;;;;5.70;1.40;;;;;;;;;;5096916;27;93004;-69
2022/09/17 05:40:50;;;;;;;9.02;1.27;;;;;;;;;;5099087;27;93211;-69
2022/09/17 05:43:16;;;;;;;3.70;1.40;;;;;;;;;;5097614;27;92541;-69
2022/09/17 05:45:43;;;;;;;8.23;1.77;;;;;;;;;;5090635;27;93304;-69
2022/09/17 05:48:13;;;;;;;8.98;2.45;;;;;;;;;;5073108;27;95588;-69
2022/09/17 05:50:40;;;;;;;5.65;1.35;;;;;;;;;;5075609;27;92480;-69
2022/09/17 05:53:07;;;;;;;9.20;1.25;;;;;;;;;;5076206;27;93026;-69
2022/09/17 05:55:34;;;;;;;4.55;2.42;;;;;;;;;;5075710;27;93210;-67
2022/09/17 05:58:07;;;;;;;5.93;1.40;;;;;;;;;;5075934;27;92362;-69
2022/09/17 06:00:33;;;;;;;7.90;1.35;;;;;;;;;;5081661;27;93832;-69
2022/09/17 06:03:00;;;;;;;5.40;1.30;;;;;;;;;;5092043;27;94160;-69
2022/09/17 06:05:26;;;;;;;5.82;1.27;;;;;;;;;;5096418;27;92982;-69
2022/09/17 06:07:52;;;;;;;7.45;1.60;;;;;;;;;;5095064;27;94337;-69
2022/09/17 06:10:18;;;;;;;3.03;1.45;;;;;;;;;;5095784;27;92462;-69
2022/09/17 06:12:45;;;;;;;5.40;1.33;;;;;;;;;;5094112;27;94755;-69
2022/09/17 06:15:13;;;;;;;7.30;1.25;;;;;;;;;;5078196;27;93139;-69
2022/09/17 06:17:40;;;;;;;7.30;1.50;;;;;;;;;;5074573;27;92581;-69
2022/09/17 06:20:06;;;;;;;6.55;2.30;;;;;;;;;;5075191;27;92566;-69
2022/09/17 06:22:33;;;;;;;4.93;1.58;;;;;;;;;;5077598;27;93527;-69
2022/09/17 06:25:01;;;;;;;6.60;1.60;;;;;;;;;;5077114;27;93518;-69
2022/09/17 06:27:31;;;;;;;3.40;1.40;;;;;;;;;;5093247;27;93213;-69
2022/09/17 06:29:58;;;;;;;8.68;2.30;;;;;;;;;;5082401;27;91793;-69
2022/09/17 06:32:24;;;;;;;5.18;1.30;;;;;;;;;;5075367;27;92522;-69
2022/09/17 06:34:51;;;;;;;8.48;1.55;;;;;;;;;;5077428;27;94145;-69
2022/09/17 06:37:17;;;;;;;9.60;1.20;;;;;;;;;;5074771;27;94830;-68
2022/09/17 06:39:44;;;;;;;7.28;1.80;;;;;;;;;;5087854;27;96614;-69
2022/09/17 06:42:11;;;;;;;3.22;1.30;;;;;;;;;;5096356;27;94156;-69
2022/09/17 06:44:37;;;;;;;7.85;1.85;;;;;;;;;;5062025;27;92561;-69
2022/09/17 06:47:04;;;;;;;4.55;1.48;;;;;;;;;;5079825;27;92950;-69
2022/09/17 06:49:30;;;;;;;5.65;1.52;;;;;;;;;;5085898;27;92852;-69
2022/09/17 06:51:56;;;;;;;6.00;1.73;;;;;;;;;;5074277;27;94448;-69
2022/09/17 06:54:23;;;;;;;10.50;1.65;;;;;;;;;;5078819;27;92659;-71
2022/09/17 06:56:49;;;;;;;5.90;1.50;;;;;;;;;;5073788;27;93193;-68
2022/09/17 06:59:16;;;;;;;8.30;1.60;;;;;;;;;;5076712;27;94211;-68
2022/09/17 07:01:42;;;;;;;5.15;1.60;;;;;;;;;;5082044;27;96463;-68
2022/09/17 07:04:09;;;;;;;6.55;1.70;;;;;;;;;;5086353;27;92673;-68
2022/09/17 07:06:35;;;;;;;10.23;2.28;;;;;;;;;;5083616;27;93838;-68
2022/09/17 07:09:01;;;;;;;8.02;1.90;;;;;;;;;;5079245;27;94265;-68
2022/09/17 07:11:28;;;;;;;8.52;1.50;;;;;;;;;;5075723;27;93917;-68
2022/09/17 07:13:55;;;;;;;8.75;1.70;;;;;;;;;;5094688;27;92357;-69
2022/09/17 07:16:22;;;;;;;6.75;1.60;;;;;;;;;;5096048;27;92486;-68
2022/09/17 07:18:49;;;;;;;7.72;1.50;;;;;;;;;;5086459;27;93065;-68
2022/09/17 07:21:15;;;;;;;10.20;1.65;;;;;;;;;;5097230;27;93400;-68
2022/09/17 07:23:42;;;;;;;2.22;1.35;;;;;;;;;;5077800;27;92472;-68
2022/09/17 07:26:12;;;;;;;8.48;1.52;;;;;;;;;;5075699;27;94892;-68
2022/09/17 07:28:39;;;;;;;10.60;1.30;;;;;;;;;;5080882;27;93415;-68
2022/09/17 07:31:05;;;;;;;8.32;2.20;;;;;;;;;;5078402;27;92972;-68
2022/09/17 07:33:33;;;;;;;4.25;1.33;;;;;;;;;;5078626;27;94121;-68
2022/09/17 07:36:00;;;;;;;9.52;2.38;;;;;;;;;;5093232;27;93077;-68
2022/09/17 07:38:27;;;;;;;11.13;1.90;;;;;;;;;;5094202;27;93105;-68
2022/09/17 07:40:57;;;;;;;4.07;1.58;;;;;;;;;;5083728;27;95427;-68
2022/09/17 07:43:27;;;;;;;8.05;1.30;;;;;;;;;;5083530;27;91718;-68
2022/09/17 07:45:55;;;;;;;7.15;1.40;;;;;;;;;;5088217;27;94224;-68
2022/09/17 07:48:22;;;;;;;6.18;1.20;;;;;;;;;;5094948;27;93692;-68
2022/09/17 07:50:48;;;;;;;6.68;1.50;;;;;;;;;;5090891;27;94922;-68
2022/09/17 07:53:15;;;;;;;7.03;1.67;;;;;;;;;;5083231;27;93283;-68
2022/09/17 07:55:41;;;;;;;8.77;1.63;;;;;;;;;;5094944;27;93000;-68
2022/09/17 07:58:07;;;;;;;2.55;1.10;;;;;;;;;;5091829;27;92770;-69
2022/09/17 08:00:34;;;;;;;8.93;1.70;;;;;;;;;;5097311;27;93217;-69
2022/09/17 08:03:00;;;;;;;7.50;1.85;;;;;;;;;;5084195;27;92516;-69
2022/09/17 08:05:26;;;;;;;9.27;1.80;;;;;;;;;;5077921;27;93070;-69
2022/09/17 08:07:54;;;;;;;10.55;1.73;;;;;;;;;;5091565;27;93340;-69
2022/09/17 08:10:21;;;;;;;5.68;1.10;;;;;;;;;;5098998;27;92378;-69
2022/09/17 08:12:48;;;;;;;6.82;1.30;;;;;;;;;;5094067;27;93810;-69
2022/09/17 08:15:15;;;;;;;9.77;1.10;;;;;;;;;;5077098;27;95066;-68
2022/09/17 08:17:43;;;;;;;7.68;1.33;;;;;;;;;;5089452;27;95992;-68
2022/09/17 08:20:09;;;;;;;4.68;1.35;;;;;;;;;;5077790;27;95321;-68
2022/09/17 08:22:36;;;;;;;8.23;1.25;;;;;;;;;;5075315;27;94321;-68
2022/09/17 08:25:03;;;;;;;4.40;0.82;;;;;;;;;;5077759;27;94119;-68
2022/09/17 08:27:30;;;;;;;4.20;1.10;;;;;;;;;;5079064;27;93154;-68
2022/09/17 08:29:56;;;;;;;3.35;1.20;;;;;;;;;;5096728;27;92700;-68
2022/09/17 08:32:23;;;;;;;6.40;1.70;;;;;;;;;;5098494;27;93206;-69
2022/09/17 08:34:49;;;;;;;4.78;1.65;;;;;;;;;;5094607;27;94051;-68
2022/09/17 08:37:16;;;;;;;3.95;0.98;;;;;;;;;;5083877;27;93332;-68
2022/09/17 08:39:42;;;;;;;4.25;1.30;;;;;;;;;;5075100;27;96509;-68
2022/09/17 08:42:31;;;;;;;4.43;1.30;;;;;;;;;;5076688;27;92712;-68
2022/09/17 08:44:58;;;;;;;5.38;1.05;;;;;;;;;;5078122;27;94046;-68
2022/09/17 08:47:32;;;;;;;4.03;1.55;;;;;;;;;;5077523;27;94878;-68
2022/09/17 08:50:02;;;;;;;5.95;2.33;;;;;;;;;;5076107;27;92524;-68
2022/09/17 08:52:31;;;;;;;3.95;1.05;;;;;;;;;;5077308;27;93955;-68
2022/09/17 08:55:10;;;;;;;10.40;1.75;;;;;;;;;;5090236;27;93528;-68
2022/09/17 08:57:36;;;;;;;6.05;1.00;;;;;;;;;;5086494;27;91681;-69
2022/09/17 09:00:09;;;;;;;6.47;1.60;;;;;;;;;;5077768;27;93111;-68
2022/09/17 09:02:35;;;;;;;;;;;;;;;;;;5077553;27;92511;-68
2022/09/17 09:05:09;;;;;;;3.60;0.90;;;;;;;;;;5075426;27;122947;-69
2022/09/17 09:07:38;;;;;;;5.35;1.30;;;;;;;;;;5076083;27;93821;-69
2022/09/17 09:10:10;;;;;;;7.80;1.20;;;;;;;;;;5077254;27;92425;-70
2022/09/17 09:12:37;;;;;;;8.30;1.50;;;;;;;;;;5076453;27;93226;-70
2022/09/17 09:15:22;;;;;;;7.97;1.42;;;;;;;;;;5076495;27;93440;-70
2022/09/17 09:17:49;;;;;;;7.40;1.30;;;;;;;;;;5076131;27;94018;-69
2022/09/17 09:20:18;;;;;;;3.55;1.67;;;;;;;;;;5086977;27;93126;-70
2022/09/17 09:22:46;;;;;;;6.55;1.23;;;;;;;;;;5089063;27;91740;-70
2022/09/17 09:25:22;;;;;;;7.68;1.40;;;;;;;;;;5097007;27;93139;-69
2022/09/17 09:28:06;;;;;;;2.97;1.23;;;;;;;;;;5089848;27;94112;-69
2022/09/17 09:30:41;;;;;;;2.63;0.82;;;;;;;;;;5095489;27;94876;-70
2022/09/17 09:33:16;;;;;;;5.30;1.40;;;;;;;;;;5096516;27;96486;-69
2022/09/17 09:35:43;;;;;;;6.10;1.42;;;;;;;;;;5097253;27;96184;-69
2022/09/17 09:38:09;;;;;;;5.30;1.30;;;;;;;;;;5092743;27;92580;-69
2022/09/17 09:40:40;;;;;;;2.78;0.90;;;;;;;;;;5087798;27;94002;-68
2022/09/17 09:43:11;;;;;;;15.02;1.40;;;;;;;;;;5094508;27;93052;-69
2022/09/17 09:45:41;;;;;;;10.23;1.70;;;;;;;;;;5076211;27;93826;-69
2022/09/17 09:48:26;;;;;;;6.35;1.10;;;;;;;;;;5077017;27;93219;-68
2022/09/17 09:51:01;;;;;;;9.75;2.20;;;;;;;;;;5075495;27;92497;-69
2022/09/17 09:53:52;;;;;;;2.15;0.98;;;;;;;;;;5075151;27;93463;-68
2022/09/17 09:56:24;;;;;;;7.85;1.65;;;;;;;;;;5074575;27;95912;-68
2022/09/17 09:58:51;;;;;;;4.82;1.52;;;;;;;;;;5057202;27;92450;-69
2022/09/17 10:01:21;;;;;;;10.48;1.13;;;;;;;;;;5080748;27;93793;-68
2022/09/17 10:03:50;;;;;;;10.25;1.45;;;;;;;;;;5099716;27;94182;-68
2022/09/17 10:06:18;;;;;;;6.25;1.15;;;;;;;;;;5097179;27;93908;-68
2022/09/17 10:08:50;;;;;;;4.75;1.02;;;;;;;;;;5086018;27;93557;-69
2022/09/17 10:11:23;;;;;;;3.95;1.10;;;;;;;;;;5075877;27;92437;-68
2022/09/17 10:13:51;;;;;;;4.43;1.38;;;;;;;;;;5092085;27;93064;-69
2022/09/17 10:16:17;;;;;;;2.25;1.17;;;;;;;;;;5077361;27;93391;-69
2022/09/17 10:18:48;;;;;;;3.95;0.95;;;;;;;;;;5076534;27;92472;-69
2022/09/17 10:21:21;;;;;;;5.70;1.20;;;;;;;;;;5073263;27;96067;-69
2022/09/17 10:23:48;;;;;;;3.05;1.00;;;;;;;;;;5073977;27;93410;-67
2022/09/17 10:26:34;;;;;;;6.13;1.38;;;;;;;;;;5078534;27;92733;-67
2022/09/17 10:29:02;;;;;;;4.38;1.45;;;;;;;;;;5085575;27;93135;-67
2022/09/17 10:31:45;;;;;;;1.92;0.70;;;;;;;;;;5077708;27;94018;-67
2022/09/17 10:34:17;;;;;;;3.13;1.35;;;;;;;;;;5084416;27;93759;-67
2022/09/17 10:36:44;;;;;;;4.57;1.55;;;;;;;;;;5082103;27;93320;-68
2022/09/17 10:39:26;;;;;;;3.30;1.20;;;;;;;;;;5075198;27;92574;-67
2022/09/17 10:41:53;;;;;;;3.50;1.55;;;;;;;;;;5074545;27;92511;-68
2022/09/17 10:44:21;;;;;;;6.28;1.20;;;;;;;;;;5073729;27;93084;-69
2022/09/17 10:46:47;;;;;;;5.65;1.88;;;;;;;;;;5077808;27;96050;-69
2022/09/17 10:49:23;;;;;;;6.00;1.42;;;;;;;;;;5077057;27;95278;-69
2022/09/17 10:51:50;;;;;;;6.20;1.45;;;;;;;;;;5073914;27;92528;-69
2022/09/17 10:54:40;;;;;;;4.63;1.25;;;;;;;;;;5075166;27;93724;-69
2022/09/17 10:57:08;;;;;;;5.07;1.40;;;;;;;;;;5074179;27;93506;-69
2022/09/17 10:59:53;;;;;;;9.25;2.08;;;;;;;;;;5078028;27;92430;-69
2022/09/17 11:02:47;;;;;;;5.75;1.85;;;;;;;;;;5074596;27;93108;-70
2022/09/17 11:05:33;;;;;;;7.45;2.10;;;;;;;;;;5075589;27;92732;-69
2022/09/17 11:08:17;;;;;;;6.55;1.33;;;;;;;;;;5079150;27;92463;-69
2022/09/17 11:10:56;;;;;;;10.27;1.75;;;;;;;;;;5073802;27;94405;-69
2022/09/17 11:13:47;;;;;;;11.65;1.75;;;;;;;;;;5086827;27;94864;-69
2022/09/17 11:16:21;;;;;;;9.02;1.77;;;;;;;;;;5074478;27;95988;-69
2022/09/17 11:18:55;;;;;;;18.77;2.30;;;;;;;;;;5073735;27;93957;-69
2022/09/17 11:21:21;;;;;;;8.93;2.20;;;;;;;;;;5077111;27;92408;-69
2022/09/17 11:24:06;;;;;;;10.02;2.38;;;;;;;;;;5073393;27;93004;-69
2022/09/17 11:26:35;;;;;;;6.85;1.80;;;;;;;;;;5087884;27;93601;-69
2022/09/17 11:29:04;;;;;;;10.00;1.92;;;;;;;;;;5088444;27;92453;-69
2022/09/17 11:31:40;;;;;;;11.60;2.20;;;;;;;;;;5084144;27;93883;-69
2022/09/17 11:34:15;;;;;;;7.72;2.65;;;;;;;;;;5085050;27;92548;-69
2022/09/17 11:36:41;;;;;;;8.20;2.03;;;;;;;;;;5076863;27;92404;-69
2022/09/17 11:39:14;;;;;;;6.97;2.20;;;;;;;;;;5071244;27;95527;-69
2022/09/17 11:41:42;;;;;;;8.95;2.15;;;;;;;;;;5074241;27;93447;-69
2022/09/17 11:44:20;;;;;;;12.15;1.75;;;;;;;;;;5076505;27;93904;-69
2022/09/17 11:46:51;;;;;;;9.10;2.13;;;;;;;;;;5093849;27;92426;-69
2022/09/17 11:49:35;;;;;;;6.80;2.22;;;;;;;;;;5089840;27;92672;-69
2022/09/17 11:52:04;;;;;;;4.88;2.03;;;;;;;;;;5072832;27;93350;-69
2022/09/17 11:54:42;;;;;;;8.95;1.98;;;;;;;;;;5075038;27;94157;-69
2022/09/17 11:57:20;;;;;;;8.70;2.33;;;;;;;;;;5087491;27;91652;-69
2022/09/17 11:59:52;;;;;;;14.10;1.90;;;;;;;;;;5074911;27;93324;-69
2022/09/17 12:02:25;;;;;;;17.92;2.05;;;;;;;;;;5073445;27;92822;-69
2022/09/17 12:04:58;;;;;;;8.95;2.10;;;;;;;;;;5072309;27;94764;-69
2022/09/17 12:07:35;;;;;;;6.57;2.00;;;;;;;;;;5076797;27;93195;-69
2022/09/17 12:10:16;;;;;;;11.43;2.25;;;;;;;;;;5078459;27;92484;-69
2022/09/17 12:12:46;;;;;;;25.25;3.05;;;;;;;;;;5078121;27;93856;-69
2022/09/17 12:15:18;;;;;;;8.98;2.28;;;;;;;;;;5079165;27;93593;-69
2022/09/17 12:18:08;;;;;;;7.57;1.73;;;;;;;;;;5081986;27;92471;-69
2022/09/17 12:20:56;;;;;;;9.15;2.15;;;;;;;;;;5079939;27;93761;-69
2022/09/17 12:23:43;;;;;;;6.85;1.50;;;;;;;;;;5077250;27;91699;-69
2022/09/17 12:26:15;;;;;;;5.72;1.77;;;;;;;;;;5092971;27;95005;-69
2022/09/17 12:28:41;;;;;;;;;;;;;;;;;;5058005;27;93097;-70
2022/09/17 12:31:24;;;;;;;7.15;1.48;;;;;;;;;;5082942;27;117802;-68
2022/09/17 12:33:56;;;;;;;12.10;2.38;;;;;;;;;;5059676;27;95760;-69
2022/09/17 12:36:28;;;;;;;7.35;1.52;;;;;;;;;;5076688;27;93314;-69
2022/09/17 12:39:06;;;;;;;11.88;1.95;;;;;;;;;;5079796;27;92409;-69
2022/09/17 12:41:39;;;;;;;3.55;1.20;;;;;;;;;;5077105;27;93946;-70
2022/09/17 12:44:17;;;;;;;3.63;1.50;;;;;;;;;;5080555;27;93353;-69
2022/09/17 12:46:59;;;;;;;4.18;1.30;;;;;;;;;;5077656;27;94399;-70
2022/09/17 12:49:44;;;;;;;8.30;1.60;;;;;;;;;;5077903;27;93510;-69
2022/09/17 12:52:29;;;;;;;24.80;10.07;;;;;;;;;;5076956;27;92607;-69
2022/09/17 12:55:03;;;;;;;8.35;2.90;;;;;;;;;;5075151;27;92993;-70
2022/09/17 12:57:36;;;;;;;21.40;2.38;;;;;;;;;;5086207;27;95874;-69
2022/09/17 13:00:05;;;;;;;5.40;1.30;;;;;;;;;;5076750;27;92544;-73
2022/09/17 13:02:34;;;;;;;9.00;1.80;;;;;;;;;;5085118;27;92452;-71
2022/09/17 13:05:14;;;;;;;4.20;1.73;;;;;;;;;;5075990;27;93215;-71
2022/09/17 13:07:40;;;;;;;10.27;2.60;;;;;;;;;;5080174;27;92483;-71
2022/09/17 13:10:29;;;;;;;5.60;2.25;;;;;;;;;;5074930;27;92841;-71
2022/09/17 13:13:10;;;;;;;6.35;2.13;;;;;;;;;;5052875;27;93758;-70
2022/09/17 13:15:57;;;;;;;16.88;3.08;;;;;;;;;;5078829;27;93864;-70
2022/09/17 13:18:37;;;;;;;6.45;1.67;;;;;;;;;;5075037;27;93623;-70
2022/09/17 13:21:07;;;;;;;;;;;;;;;;;;5076822;27;92441;-70
2022/09/17 13:23:36;;;;;;;10.18;2.00;;;;;;;;;;5075116;27;123807;-71
2022/09/17 13:26:06;;;;;;;10.40;2.05;;;;;;;;;;5076914;27;94190;-68
2022/09/17 13:28:40;;;;;;;18.50;2.40;;;;;;;;;;5077073;27;92426;-69
2022/09/17 13:31:18;;;;;;;12.30;2.25;;;;;;;;;;5079758;27;93161;-69
2022/09/17 13:33:49;;;;;;;7.43;2.47;;;;;;;;;;5076649;27;92664;-68
2022/09/17 13:36:34;;;;;;;15.10;2.65;;;;;;;;;;5075729;27;93679;-67
2022/09/17 13:39:01;;;;;;;7.82;2.33;;;;;;;;;;5077262;27;94110;-65
2022/09/17 13:41:29;;;;;;;7.60;1.42;;;;;;;;;;5077303;27;91698;-67
2022/09/17 13:43:56;;;;;;;6.00;1.88;;;;;;;;;;5078081;27;93228;-64
2022/09/17 13:46:23;;;;;;;8.57;1.92;;;;;;;;;;5082476;27;92947;-66
2022/09/17 13:48:53;;;;;;;6.85;1.63;;;;;;;;;;5078225;27;95805;-66
2022/09/17 13:51:28;;;;;;;3.05;1.33;;;;;;;;;;5087138;27;96141;-67
2022/09/17 13:53:59;;;;;;;10.48;1.33;;;;;;;;;;5082469;27;94568;-66
2022/09/17 13:56:35;;;;;;;5.20;1.55;;;;;;;;;;5081995;27;93239;-66
2022/09/17 13:59:06;;;;;;;3.00;1.10;;;;;;;;;;5089911;27;93243;-66
2022/09/17 14:01:51;;;;;;;6.82;1.55;;;;;;;;;;5085143;27;92587;-67
2022/09/17 14:04:36;;;;;;;5.20;1.40;;;;;;;;;;5075414;27;92761;-66
2022/09/17 14:07:22;;;;;;;9.55;2.60;;;;;;;;;;5077576;27;94165;-66
2022/09/17 14:09:56;;;;;;;6.63;1.17;;;;;;;;;;5079583;27;92413;-66
2022/09/17 14:12:47;;;;;;;4.32;1.20;;;;;;;;;;5077247;27;92985;-67
2022/09/17 14:15:32;;;;;;;7.25;1.25;;;;;;;;;;5084995;27;96792;-66
2022/09/17 14:17:58;;;;;;;8.18;1.73;;;;;;;;;;5073249;27;95426;-66
2022/09/17 14:20:25;;;;;;;3.58;1.27;;;;;;;;;;5072320;27;93580;-65
2022/09/17 14:22:55;;;;;;;12.10;1.80;;;;;;;;;;5073988;27;93216;-64
2022/09/17 14:25:27;;;;;;;4.88;1.17;;;;;;;;;;5076711;27;92923;-65
2022/09/17 14:27:59;;;;;;;10.10;1.80;;;;;;;;;;5073350;27;93080;-66
2022/09/17 14:30:28;;;;;;;10.68;2.33;;;;;;;;;;5076164;27;92390;-66
2022/09/17 14:33:00;;;;;;;9.35;1.73;;;;;;;;;;5094839;27;93923;-66
2022/09/17 14:35:34;;;;;;;5.72;1.52;;;;;;;;;;5095201;27;93469;-64
2022/09/17 14:38:10;;;;;;;5.45;1.75;;;;;;;;;;5098706;27;92395;-65
2022/09/17 14:40:41;;;;;;;7.03;1.65;;;;;;;;;;5093422;27;96004;-66
2022/09/17 14:43:14;;;;;;;5.32;1.60;;;;;;;;;;5095259;27;92421;-66
2022/09/17 14:45:41;;;;;;;8.73;1.73;;;;;;;;;;5093888;27;93887;-66
2022/09/17 14:48:26;;;;;;;16.63;3.03;;;;;;;;;;5074889;27;94218;-66
2022/09/17 14:51:12;;;;;;;21.33;3.50;;;;;;;;;;5075342;27;92478;-66
2022/09/17 14:53:38;;;;;;;16.73;2.40;;;;;;;;;;5075394;27;94242;-66
2022/09/17 14:56:08;;;;;;;13.55;2.53;;;;;;;;;;5074100;27;92314;-66
2022/09/17 14:58:36;;;;;;;7.78;2.38;;;;;;;;;;5075672;27;91662;-66